Stormwatcher's Retreat Logo




                  Temp     Hi    Low   Out    Dew  Wind  Wind   Wind    Hi    Hi   Wind   Heat    THW   THSW                Rain  Solar   Solar Hi Solar   UV    UV    Hi     Heat    Cool    In     In    In     In     In   In Air          Wind  Wind    ISS   Arc.
  Date    Time     Out   Temp   Temp   Hum    Pt. Speed   Dir    Run Speed   Dir  Chill  Index  Index  Index   Bar    Rain  Rate   Rad.  Energy    Rad.  Index  Dose   UV     D-D     D-D    Temp   Hum    Dew   Heat    EMC Density     ET   Samp   Tx   Recept  Int.
------------------------------------------------------------------------------------------------------------------------------------------------------------------------------------------------------------------------------------------------------------------------
 1/16/19 12:10a   46.3   46.3   46.3    60   33.2   6.0   ESE   1.00  12.0   ESE   43.3   45.5   42.5   38.7  29.678  0.00  0.00     0     0.00      0     0.0  0.00   0.0   0.130   0.000   67.5    43   44.2   65.4   8.25  .0739    0.000   210    5    100.0   10 
 1/16/19 12:20a   46.3   46.4   46.3    60   33.2   6.0   ESE   1.00  13.0     E   43.3   45.5   42.5   38.7  29.674  0.00  0.00     0     0.00      0     0.0  0.00   0.0   0.130   0.000   67.4    43   44.1   65.3   8.25  .0739    0.000   208    5    100.0   10 
 1/16/19 12:30a   46.3   46.4   46.2    60   33.2   6.0   ESE   1.00  14.0   ESE   43.3   45.5   42.5   38.7  29.671  0.00  0.00     0     0.00      0     0.0  0.00   0.0   0.130   0.000   67.3    43   44.0   65.2   8.25  .0740    0.000   212    5    100.0   10 
 1/16/19 12:40a   46.2   46.3   46.2    61   33.5   6.0   ESE   1.00  16.0   ESE   43.1   45.4   42.3   38.5  29.668  0.00  0.00     0     0.00      0     0.0  0.00   0.0   0.131   0.000   67.3    43   44.0   65.2   8.25  .0739    0.000   211    5    100.0   10 
 1/16/19 12:50a   46.1   46.2   46.1    61   33.4   6.0     E   1.00  16.0   ESE   43.0   45.3   42.2   38.4  29.665  0.00  0.00     0     0.00      0     0.0  0.00   0.0   0.131   0.000   67.1    43   43.8   65.0   8.25  .0740    0.000   212    5    100.0   10 
 1/16/19  1:00a   45.9   46.1   45.9    61   33.2   6.0   ESE   1.00  12.0    SE   42.8   45.1   42.0   38.2  29.662  0.00  0.00     0     0.00      0     0.0  0.00   0.0   0.133   0.000   67.1    43   43.8   65.0   8.25  .0740    0.002   214    5    100.0   10 
 1/16/19  1:10a   45.8   46.0   45.8    62   33.5   7.0     E   1.17  14.0   ESE   42.2   45.0   41.4   37.7  29.664  0.00  0.00     0     0.00      0     0.0  0.00   0.0   0.133   0.000   67.0    43   43.8   64.9   8.25  .0740    0.000   210    5    100.0   10 
 1/16/19  1:20a   45.9   45.9   45.8    61   33.2   5.0   ESE   0.83  12.0   SSE   43.4   45.1   42.6   38.8  29.670  0.00  0.00     0     0.00      0     0.0  0.00   0.0   0.133   0.000   67.0    43   43.8   64.9   8.25  .0740    0.000   210    5    100.0   10 
 1/16/19  1:30a   46.1   46.1   45.9    61   33.4   6.0   ESE   1.00  14.0   ESE   43.0   45.3   42.2   38.4  29.676  0.00  0.00     0     0.00      0     0.0  0.00   0.0   0.131   0.000   66.9    43   43.7   64.7   8.25  .0740    0.000   212    5    100.0   10 
 1/16/19  1:40a   45.9   46.1   45.9    61   33.2   6.0   ESE   1.00  12.0   ESE   42.8   45.1   42.0   38.2  29.674  0.00  0.00     0     0.00      0     0.0  0.00   0.0   0.133   0.000   66.9    43   43.7   64.7   8.25  .0740    0.000   212    5    100.0   10 
 1/16/19  1:50a   45.9   45.9   45.8    61   33.2   6.0   ESE   1.00  12.0   SSE   42.8   45.1   42.0   38.2  29.674  0.00  0.00     0     0.00      0     0.0  0.00   0.0   0.133   0.000   66.8    43   43.6   64.6   8.25  .0740    0.000   212    5    100.0   10 
 1/16/19  2:00a   45.8   45.9   45.8    61   33.1   6.0   ESE   1.00  13.0   ESE   42.7   45.0   41.9   38.1  29.675  0.00  0.00     0     0.00      0     0.0  0.00   0.0   0.133   0.000   66.7    43   43.5   64.5   8.25  .0741    0.002   212    5    100.0   10 
 1/16/19  2:10a   45.8   45.8   45.8    61   33.1   7.0   ESE   1.17  13.0    SE   42.2   45.0   41.4   37.7  29.675  0.00  0.00     0     0.00      0     0.0  0.00   0.0   0.133   0.000   66.7    43   43.5   64.5   8.25  .0741    0.000   212    5    100.0   10 
 1/16/19  2:20a   45.8   45.8   45.8    61   33.1   7.0   ESE   1.17  12.0   ESE   42.2   45.0   41.4   37.7  29.683  0.00  0.00     0     0.00      0     0.0  0.00   0.0   0.133   0.000   66.6    43   43.4   64.4   8.25  .0741    0.000   212    5    100.0   10 
 1/16/19  2:30a   45.9   45.9   45.8    61   33.2   8.0   ESE   1.33  16.0   ESE   41.7   45.1   40.9   37.3  29.684  0.00  0.00     0     0.00      0     0.0  0.00   0.0   0.133   0.000   66.5    43   43.3   64.3   8.25  .0741    0.000   210    5    100.0   10 
 1/16/19  2:40a   46.0   46.0   45.9    60   32.9   8.0   ESE   1.33  16.0   ENE   41.8   45.2   41.0   37.4  29.683  0.00  0.00     0     0.00      0     0.0  0.00   0.0   0.132   0.000   66.5    43   43.3   64.3   8.25  .0741    0.000   212    5    100.0   10 
 1/16/19  2:50a   46.0   46.0   45.9    60   32.9   7.0   ESE   1.17  17.0   ESE   42.4   45.2   41.6   37.9  29.682  0.00  0.00     0     0.00      0     0.0  0.00   0.0   0.132   0.000   66.4    43   43.2   64.2   8.25  .0741    0.000   213    5    100.0   10 
 1/16/19  3:00a   46.0   46.0   45.9    61   33.3   6.0   ESE   1.00  13.0   ENE   42.9   45.2   42.1   38.3  29.686  0.00  0.00     0     0.00      0     0.0  0.00   0.0   0.132   0.000   66.3    43   43.1   64.0   8.25  .0742    0.002   211    5    100.0   10 
 1/16/19  3:10a   46.0   46.0   46.0    61   33.3   8.0   ESE   1.33  14.0   ESE   41.8   45.2   41.0   37.4  29.684  0.00  0.00     0     0.00      0     0.0  0.00   0.0   0.132   0.000   66.3    43   43.1   64.0   8.25  .0741    0.000   211    5    100.0   10 
 1/16/19  3:20a   45.8   46.0   45.8    61   33.1   7.0   ESE   1.17  13.0     E   42.2   45.0   41.4   37.7  29.688  0.00  0.00     0     0.00      0     0.0  0.00   0.0   0.133   0.000   66.2    43   43.0   63.9   8.25  .0742    0.000   213    5    100.0   10 
 1/16/19  3:30a   45.9   45.9   45.8    61   33.2   8.0   ESE   1.33  15.0   ESE   41.7   45.1   40.9   37.3  29.689  0.00  0.00     0     0.00      0     0.0  0.00   0.0   0.133   0.000   66.2    43   43.0   63.9   8.25  .0742    0.000   211    5    100.0   10 
 1/16/19  3:40a   46.0   46.0   45.9    61   33.3   6.0   ESE   1.00  13.0     E   42.9   45.2   42.1   38.3  29.688  0.00  0.00     0     0.00      0     0.0  0.00   0.0   0.132   0.000   66.1    43   42.9   63.8   8.25  .0742    0.000   209    5    100.0   10 
 1/16/19  3:50a   46.0   46.0   45.9    61   33.3   8.0   ESE   1.33  15.0    SE   41.8   45.2   41.0   37.4  29.685  0.00  0.00     0     0.00      0     0.0  0.00   0.0   0.132   0.000   66.1    43   42.9   63.8   8.25  .0742    0.000   212    5    100.0   10 
 1/16/19  4:00a   46.0   46.0   45.9    61   33.3   8.0   ESE   1.33  16.0   ESE   41.8   45.2   41.0   37.4  29.683  0.00  0.00     0     0.00      0     0.0  0.00   0.0   0.132   0.000   66.0    43   42.9   63.7   8.25  .0742    0.002   212    5    100.0   10 
 1/16/19  4:10a   46.0   46.0   46.0    61   33.3   7.0   ESE   1.17  20.0     E   42.4   45.2   41.6   37.9  29.673  0.00  0.00     0     0.00      0     0.0  0.00   0.0   0.132   0.000   66.0    43   42.9   63.7   8.25  .0742    0.000   212    5    100.0   10 
 1/16/19  4:20a   45.7   46.0   45.7    62   33.4   6.0   ESE   1.00  12.0     E   42.5   44.9   41.7   37.9  29.679  0.00  0.00     0     0.00      0     0.0  0.00   0.0   0.134   0.000   65.9    43   42.8   63.6   8.25  .0742    0.000   213    5    100.0   10 
 1/16/19  4:30a   45.6   45.7   45.6    62   33.3   8.0   ESE   1.33  16.0   ESE   41.3   44.8   40.5   36.9  29.677  0.00  0.00     0     0.00      0     0.0  0.00   0.0   0.135   0.000   65.9    43   42.8   63.6   8.25  .0742    0.000   212    5    100.0   10 
 1/16/19  4:40a   45.8   45.8   45.6    62   33.5   7.0   ESE   1.17  15.0    SE   42.2   45.0   41.4   37.7  29.676  0.00  0.00     0     0.00      0     0.0  0.00   0.0   0.133   0.000   65.8    43   42.7   63.5   8.25  .0742    0.000   213    5    100.0   10 
 1/16/19  4:50a   45.9   46.0   45.8    61   33.2   7.0   ESE   1.17  14.0    SE   42.3   45.1   41.5   37.8  29.679  0.00  0.00     0     0.00      0     0.0  0.00   0.0   0.133   0.000   65.7    43   42.6   63.4   8.25  .0742    0.000   209    5    100.0   10 
 1/16/19  5:00a   45.8   45.9   45.8    62   33.5   7.0   ESE   1.17  13.0   ESE   42.2   45.0   41.4   37.7  29.684  0.00  0.00     0     0.00      0     0.0  0.00   0.0   0.133   0.000   65.7    43   42.6   63.4   8.25  .0742    0.002   211    5    100.0   10 
 1/16/19  5:10a   45.7   45.8   45.7    62   33.4   7.0     E   1.17  13.0   ESE   42.0   44.9   41.2   37.5  29.672  0.00  0.00     0     0.00      0     0.0  0.00   0.0   0.134   0.000   65.7    43   42.6   63.4   8.25  .0742    0.000   212    5    100.0   10 
 1/16/19  5:20a   45.8   45.8   45.6    62   33.5   8.0   ESE   1.33  17.0   ESE   41.6   45.0   40.8   37.2  29.673  0.00  0.00     0     0.00      0     0.0  0.00   0.0   0.133   0.000   65.6    43   42.5   63.3   8.25  .0742    0.000   213    5    100.0   10 
 1/16/19  5:30a   45.9   45.9   45.8    62   33.6   8.0   ESE   1.33  16.0    SE   41.7   45.1   40.9   37.3  29.673  0.00  0.00     0     0.00      0     0.0  0.00   0.0   0.133   0.000   65.6    43   42.5   63.3   8.25  .0742    0.000   212    5    100.0   10 
 1/16/19  5:40a   45.7   45.9   45.7    62   33.4   8.0   ESE   1.33  15.0   ESE   41.4   44.9   40.6   37.0  29.676  0.00  0.00     0     0.00      0     0.0  0.00   0.0   0.134   0.000   65.5    43   42.4   63.2   8.25  .0743    0.000   211    5    100.0   10 
 1/16/19  5:50a   46.0   46.0   45.7    64   34.5   8.0   ESE   1.33  14.0   ESE   41.8   45.3   41.1   37.5  29.689  0.00  0.00     0     0.00      0     0.0  0.00   0.0   0.132   0.000   65.5    43   42.4   63.2   8.25  .0743    0.000   212    5    100.0   10 
 1/16/19  6:00a   45.1   46.0   45.1    67   34.8   7.0   ESE   1.17  15.0   ESE   41.3   44.5   40.7   37.0  29.699  0.00  0.00     0     0.00      0     0.0  0.00   0.0   0.138   0.000   65.4    43   42.3   63.1   8.25  .0743    0.002   212    5    100.0   10 
 1/16/19  6:10a   44.6   45.1   44.6    69   35.1   7.0   ESE   1.17  12.0     E   40.7   44.1   40.2   36.5  29.696  0.00  0.00     0     0.00      0     0.0  0.00   0.0   0.142   0.000   65.4    43   42.3   63.1   8.25  .0743    0.000   211    5    100.0   10 
 1/16/19  6:20a   44.3   44.6   44.3    71   35.5   6.0   ESE   1.00  15.0   SSE   40.9   43.8   40.4   36.7  29.691  0.00  0.00     0     0.00      0     0.0  0.00   0.0   0.144   0.000   65.6    43   42.5   63.3   8.25  .0743    0.000   213    5    100.0   10 
 1/16/19  6:30a   44.4   44.4   44.3    71   35.6   6.0   ESE   1.00  12.0    SE   41.0   43.9   40.5   36.8  29.695  0.00  0.00     0     0.00      0     0.0  0.00   0.0   0.143   0.000   65.7    43   42.6   63.4   8.25  .0743    0.000   212    5    100.0   10 
 1/16/19  6:40a   44.7   44.7   44.4    72   36.2   6.0   ESE   1.00  14.0   SSE   41.3   44.2   40.8   37.1  29.700  0.00  0.00     0     0.00      0     0.0  0.00   0.0   0.141   0.000   65.9    43   42.8   63.6   8.25  .0743    0.000   211    5    100.0   10 
 1/16/19  6:50a   44.7   44.8   44.7    72   36.2   7.0   ESE   1.17  13.0   SSE   40.8   44.2   40.3   36.6  29.697  0.00  0.00     0     0.00      0     0.0  0.00   0.0   0.141   0.000   66.0    43   42.9   63.7   8.25  .0742    0.000   212    5    100.0   10 
 1/16/19  7:00a   44.3   44.7   44.2    73   36.2   8.0   ESE   1.33  15.0    SE   39.8   43.9   39.4   35.9  29.697  0.01  0.00     0     0.00      0     0.0  0.00   0.0   0.144   0.000   66.2    43   43.0   63.9   8.25  .0742    0.002   210    5    100.0   10 
 1/16/19  7:10a   44.2   44.3   44.1    74   36.4   7.0   ESE   1.17  14.0    SE   40.2   43.8   39.8   36.1  29.698  0.00  0.00     0     0.00      0     0.0  0.00   0.0   0.144   0.000   66.3    44   43.7   64.2   8.35  .0742    0.000   212    5    100.0   10 
 1/16/19  7:20a   44.1   44.2   44.1    74   36.3   8.0   ESE   1.33  14.0   SSE   39.5   43.7   39.1   35.6  29.693  0.00  0.00     0     0.00      0     0.0  0.00   0.0   0.145   0.000   66.4    43   43.2   64.2   8.25  .0742    0.000   212    5    100.0   10 
 1/16/19  7:30a   44.5   44.5   44.1    74   36.7   9.0   ESE   1.50  15.0    SE   39.4   44.1   39.0   35.6  29.690  0.00  0.00     0     0.00      0     0.0  0.00   0.0   0.142   0.000   66.5    43   43.3   64.3   8.25  .0741    0.000   212    5    100.0   10 
 1/16/19  7:40a   44.5   44.5   44.4    74   36.7   9.0   ESE   1.50  17.0    SE   39.4   44.1   39.0   35.6  29.679  0.00  0.00     0     0.00      0     0.0  0.00   0.0   0.142   0.000   66.6    44   44.0   64.5   8.35  .0741    0.000   211    5    100.0   10 
 1/16/19  7:50a   44.6   44.6   44.5    74   36.8   9.0   ESE   1.50  17.0     E   39.5   44.2   39.1   35.7  29.677  0.00  0.00     1     0.01      5     0.0  0.00   0.0   0.142   0.000   66.7    44   44.1   64.6   8.35  .0740    0.000   211    5    100.0   10 
 1/16/19  8:00a   44.9   44.9   44.6    74   37.1  10.0   ESE   1.67  20.0     E   39.4   44.5   39.0   35.9  29.680  0.00  0.00     7     0.10      9     0.0  0.00   0.0   0.140   0.000   66.7    44   44.1   64.6   8.35  .0741    0.001   212    5    100.0   10 
 1/16/19  8:10a   45.1   45.1   44.9    74   37.3   9.0   ESE   1.50  19.0    SE   40.1   44.7   39.7   36.6  29.679  0.00  0.00    13     0.19     16     0.0  0.00   0.0   0.138   0.000   66.8    44   44.2   64.7   8.35  .0740    0.000   212    5    100.0   10 
 1/16/19  8:20a   45.4   45.4   45.1    73   37.2   9.0   ESE   1.50  17.0     E   40.5   45.0   40.1   37.2  29.679  0.00  0.00    19     0.27     21     0.0  0.00   0.0   0.136   0.000   66.9    44   44.3   64.9   8.35  .0740    0.000   213    5    100.0   10 
 1/16/19  8:30a   45.8   45.8   45.4    73   37.6   9.0   ESE   1.50  15.0    SE   41.0   45.4   40.6   37.7  29.680  0.00  0.00    20     0.29     25     0.0  0.00   0.0   0.133   0.000   66.9    44   44.3   64.9   8.35  .0740    0.000   210    5    100.0   10 
 1/16/19  8:40a   45.7   45.8   45.7    74   37.9   9.0   ESE   1.50  17.0   SSE   40.8   45.3   40.4   37.7  29.674  0.00  0.00    29     0.42     33     0.0  0.00   0.0   0.134   0.000   67.0    44   44.4   65.0   8.35  .0740    0.000   211    5    100.0   10 
 1/16/19  8:50a   46.0   46.1   45.7    74   38.2   9.0   ESE   1.50  14.0   ESE   41.2   45.6   40.8   38.1  29.679  0.00  0.00    30     0.43     33     0.0  0.00   0.0   0.132   0.000   67.1    44   44.4   65.1   8.35  .0740    0.000   213    5    100.0   10 
 1/16/19  9:00a   46.1   46.3   46.1    74   38.3   9.0   ESE   1.50  17.0   ESE   41.3   45.7   40.9   38.1  29.680  0.00  0.00    23     0.33     26     0.0  0.00   0.0   0.131   0.000   67.2    44   44.5   65.2   8.35  .0740    0.002   210    5    100.0   10 
 1/16/19  9:10a   45.9   46.1   45.8    75   38.4   9.0   ESE   1.50  15.0   ESE   41.1   45.5   40.7   39.5  29.686  0.00  0.00    21     0.30     25     0.0  0.00   0.0   0.133   0.000   67.2    44   44.5   65.2   8.35  .0740    0.000   210    5    100.0   10 
 1/16/19  9:20a   45.6   45.9   45.5    76   38.5   8.0   ESE   1.33  15.0    SE   41.3   45.2   40.9   39.7  29.694  0.02  0.09    23     0.33     30     0.0  0.00   0.0   0.135   0.000   67.3    44   44.6   65.3   8.35  .0740    0.000   213    5    100.0   10 
 1/16/19  9:30a   45.1   45.5   45.1    78   38.6   9.0   ESE   1.50  17.0   ESE   40.1   44.8   39.8   39.0  29.688  0.01  0.09    30     0.43     35     0.0  0.00   0.0   0.138   0.000   67.3    44   44.6   65.3   8.35  .0740    0.000   210    5    100.0   10 
 1/16/19  9:40a   45.2   45.2   45.1    79   39.1   8.0   ESE   1.33  16.0   SSE   40.8   45.0   40.6   40.6  29.680  0.00  0.05    49     0.70     67     0.0  0.00   0.0   0.137   0.000   67.4    44   44.7   65.4   8.35  .0739    0.000   212    5    100.0   10 
 1/16/19  9:50a   45.8   45.8   45.2    80   40.0  11.0   ESE   1.83  19.0   ESE   40.0   45.6   39.8   40.6  29.680  0.00  0.00    72     1.03     76     0.0  0.00   0.0   0.133   0.000   67.4    44   44.7   65.4   8.35  .0739    0.000   212    5    100.0   10 
 1/16/19 10:00a   46.0   46.0   45.8    80   40.2  10.0   ESE   1.67  19.0   ESE   40.6   45.8   40.4   40.5  29.675  0.00  0.00    53     0.76     63     0.0  0.00   0.0   0.132   0.000   67.5    44   44.8   65.5   8.35  .0739    0.002   211    5    100.0   10 
 1/16/19 10:10a   45.9   45.9   45.9    80   40.1  10.0   ESE   1.67  17.0   ESE   40.5   45.7   40.3   39.9  29.679  0.00  0.00    44     0.63     46     0.0  0.00   0.0   0.133   0.000   67.7    44   45.0   65.7   8.35  .0739    0.000   211    5    100.0   10 
 1/16/19 10:20a   46.1   46.1   45.9    80   40.3  10.0   ESE   1.67  18.0    SE   40.7   45.9   40.5   40.8  29.679  0.00  0.00    59     0.85     70     0.0  0.00   0.0   0.131   0.000   67.8    44   45.1   65.9   8.35  .0739    0.000   213    5    100.0   10 
 1/16/19 10:30a   46.4   46.4   46.1    80   40.6   7.0   ESE   1.17  20.0    SE   42.9   46.2   42.7   44.1  29.681  0.00  0.00    88     1.26    111     0.0  0.00   0.0   0.129   0.000   67.9    44   45.2   66.0   8.35  .0739    0.000   213    5    100.0   10 
 1/16/19 10:40a   46.9   46.9   46.4    80   41.1   8.0   ESE   1.33  19.0     S   42.8   46.7   42.6   45.2  29.676  0.00  0.00   122     1.75    125     0.0  0.00   0.0   0.126   0.000   68.0    44   45.3   66.1   8.35  .0738    0.000   212    5    100.0   10 
 1/16/19 10:50a   47.2   47.2   46.9    79   41.0   9.0   ESE   1.50  20.0     E   42.5   47.0   42.3   44.2  29.676  0.00  0.00   107     1.53    120     0.0  0.00   0.0   0.124   0.000   68.1    44   45.4   66.2   8.35  .0738    0.000   210    5    100.0   10 
 1/16/19 11:00a   47.4   47.4   47.2    79   41.2   9.0   ESE   1.50  15.0   ESE   42.8   47.2   42.6   44.2  29.675  0.00  0.00   101     1.45    113     0.0  0.00   0.0   0.122   0.000   68.2    44   45.4   66.3   8.35  .0738    0.003   212    5    100.0   10 
 1/16/19 11:10a   47.4   47.4   47.3    79   41.2  10.0   ESE   1.67  17.0   ESE   42.3   47.2   42.1   43.9  29.661  0.00  0.00   110     1.58    113     0.0  0.00   0.0   0.122   0.000   68.3    44   45.5   66.4   8.35  .0737    0.000   212    5    100.0   10 
 1/16/19 11:20a   47.6   47.6   47.4    79   41.4  10.0   ESE   1.67  17.0     S   42.5   47.4   42.3   44.3  29.661  0.00  0.00   116     1.66    121     0.0  0.00   0.0   0.121   0.000   68.4    44   45.6   66.4   8.35  .0737    0.000   211    5    100.0   10 
 1/16/19 11:30a   47.6   47.6   47.5    79   41.4   9.0   ESE   1.50  17.0     E   43.0   47.4   42.8   46.5  29.651  0.00  0.00   166     2.38    190     0.0  0.00   0.0   0.121   0.000   68.5    44   45.7   66.5   8.35  .0737    0.000   213    5    100.0   10 
 1/16/19 11:40a   47.7   47.7   47.6    80   41.8  10.0   ESE   1.67  21.0    SE   42.6   47.6   42.5   46.0  29.643  0.00  0.00   166     2.38    174     0.0  0.00   0.0   0.120   0.000   68.4    44   45.6   66.4   8.35  .0737    0.000   212    5    100.0   10 
 1/16/19 11:50a   47.9   47.9   47.7    80   42.0  10.0   ESE   1.67  21.0    SE   42.9   47.8   42.8   46.2  29.628  0.00  0.00   163     2.34    211     0.0  0.00   0.0   0.119   0.000   68.5    44   45.7   66.5   8.35  .0736    0.000   211    5    100.0   10 
 1/16/19 12:00p   48.2   48.3   47.9    79   42.0  11.0   ESE   1.83  20.0   SSE   42.7   48.1   42.6   45.7  29.620  0.00  0.00   157     2.25    213     0.0  0.00   0.0   0.117   0.000   68.5    44   45.7   66.5   8.35  .0736    0.004   210    5    100.0   10 
 1/16/19 12:10p   48.3   48.4   48.3    78   41.8  12.0   ESE   2.00  19.0    SE   42.4   48.1   42.2   44.2  29.619  0.00  0.00   121     1.73    141     0.0  0.00   0.0   0.116   0.000   68.5    44   45.7   66.5   8.35  .0736    0.000   211    5    100.0   10 
 1/16/19 12:20p   48.2   48.4   48.2    78   41.7  12.0   ESE   2.00  19.0     E   42.2   48.0   42.0   43.7  29.611  0.00  0.00   112     1.61    121     0.0  0.00   0.0   0.117   0.000   68.6    44   45.8   66.6   8.35  .0736    0.000   213    5    100.0   10 
 1/16/19 12:30p   48.2   48.2   48.1    79   42.0  12.0     E   2.00  19.0   SSE   42.2   48.1   42.1   44.2  29.601  0.00  0.00   124     1.78    130     0.0  0.00   0.0   0.117   0.000   68.6    44   45.8   66.6   8.35  .0735    0.000   213    5    100.0   10 
 1/16/19 12:40p   48.3   48.3   48.2    79   42.1  12.0   ESE   2.00  18.0   ESE   42.4   48.2   42.3   43.9  29.596  0.00  0.00   107     1.53    113     0.0  0.00   0.0   0.116   0.000   68.7    44   45.9   66.7   8.35  .0735    0.000   211    5    100.0   10 
 1/16/19 12:50p   48.5   48.5   48.3    78   42.0  12.0   ESE   2.00  22.0     E   42.6   48.3   42.4   44.0  29.582  0.00  0.00   105     1.51    113     0.0  0.00   0.0   0.115   0.000   68.8    44   46.0   66.8   8.35  .0735    0.000   212    5    100.0   10 
 1/16/19  1:00p   48.7   48.7   48.5    77   41.8  13.0   ESE   2.17  22.0   ESE   42.4   48.5   42.2   43.3  29.579  0.00  0.00    91     1.30    113     0.0  0.00   0.0   0.113   0.000   68.9    44   46.1   66.9   8.35  .0734    0.004   212    5    100.0   10 
 1/16/19  1:10p   48.9   48.9   48.7    77   42.0  12.0   ESE   2.00  20.0     E   43.1   48.7   42.9   44.7  29.570  0.00  0.00   111     1.59    123     0.0  0.00   0.0   0.112   0.000   68.9    44   46.1   66.9   8.35  .0734    0.000   212    5    100.0   10 
 1/16/19  1:20p   49.1   49.2   48.9    76   41.9  13.0   ESE   2.17  25.0   ESE   42.8   48.8   42.5   44.9  29.558  0.00  0.00   134     1.92    148     0.0  0.00   0.0   0.110   0.000   69.0    44   46.2   67.0   8.35  .0734    0.000   213    5    100.0   10 
 1/16/19  1:30p   49.4   49.4   49.2    76   42.1  13.0   ESE   2.17  28.0   ESE   43.2   49.2   43.0   44.9  29.531  0.00  0.00   115     1.65    130     0.0  0.00   0.0   0.108   0.000   69.0    44   46.2   67.0   8.35  .0733    0.000   213    5    100.0   10 
 1/16/19  1:40p   49.3   49.5   49.3    76   42.1  13.0   ESE   2.17  28.0     E   43.1   49.1   42.9   44.3  29.550  0.00  0.00    98     1.40    113     0.0  0.00   0.0   0.109   0.000   68.9    44   46.1   66.9   8.35  .0734    0.000   213    5    100.0   10 
 1/16/19  1:50p   49.3   49.3   49.2    76   42.1  12.0   ESE   2.00  20.0   ESE   43.5   49.1   43.3   46.0  29.530  0.00  0.00   137     1.96    151     0.0  0.00   0.0   0.109   0.000   68.9    44   46.1   66.9   8.35  .0733    0.000   211    5    100.0   10 
 1/16/19  2:00p   49.4   49.4   49.3    76   42.1  14.0   ESE   2.33  25.0     E   42.8   49.2   42.6   44.4  29.518  0.00  0.00   109     1.56    120     0.0  0.00   0.0   0.108   0.000   68.9    44   46.1   66.9   8.35  .0733    0.004   212    5    100.0   10 
 1/16/19  2:10p   49.4   49.4   49.3    76   42.1  15.0   ESE   2.50  23.0     E   42.5   49.2   42.3   43.9  29.513  0.00  0.00   105     1.51    120     0.0  0.00   0.0   0.108   0.000   68.9    44   46.1   66.9   8.35  .0733    0.000   213    5    100.0   10 
 1/16/19  2:20p   49.5   49.6   49.4    76   42.2  14.0   ESE   2.33  22.0   SSE   43.0   49.3   42.8   44.0  29.507  0.00  0.00    86     1.23    120     0.0  0.00   0.0   0.108   0.000   68.8    44   46.0   66.8   8.35  .0733    0.000   211    5    100.0   10 
 1/16/19  2:30p   49.5   49.5   49.5    76   42.2  14.0   ESE   2.33  26.0   ESE   43.0   49.3   42.8   43.0  29.499  0.00  0.00    55     0.79     65     0.0  0.00   0.0   0.108   0.000   68.8    44   46.0   66.8   8.35  .0733    0.000   211    5    100.0   10 
 1/16/19  2:40p   49.4   49.5   49.4    77   42.5  14.0   ESE   2.33  23.0    SE   42.8   49.2   42.6   42.1  29.498  0.01  0.00    33     0.47     47     0.0  0.00   0.0   0.108   0.000   68.8    44   46.0   66.8   8.35  .0733    0.000   212    5    100.0   10 
 1/16/19  2:50p   48.8   49.4   48.8    79   42.6  13.0   ESE   2.17  21.0     E   42.5   48.7   42.4   41.8  29.487  0.00  0.00    33     0.47     39     0.0  0.00   0.0   0.113   0.000   68.7    44   45.9   66.7   8.35  .0732    0.000   211    5    100.0   10 
 1/16/19  3:00p   48.5   48.7   48.5    80   42.6  13.0   ESE   2.17  21.0     E   42.2   48.4   42.1   41.6  29.483  0.00  0.00    33     0.47     44     0.0  0.00   0.0   0.115   0.000   68.7    44   45.9   66.7   8.35  .0732    0.003   212    5    100.0   10 
 1/16/19  3:10p   48.6   48.6   48.5    81   43.0  13.0   ESE   2.17  22.0   ESE   42.3   48.5   42.2   42.4  29.477  0.00  0.00    52     0.75     54     0.0  0.00   0.0   0.114   0.000   68.6    44   45.8   66.6   8.35  .0732    0.000   208    5    100.0   10 
 1/16/19  3:20p   48.6   48.7   48.6    81   43.0  14.0     E   2.33  23.0     E   41.9   48.5   41.8   40.4  29.466  0.00  0.00    48     0.69     54     0.0  0.00   0.0   0.114   0.000   68.6    44   45.8   66.6   8.35  .0732    0.000   211    5    100.0   10 
 1/16/19  3:30p   48.7   48.8   48.6    81   43.1  13.0   ESE   2.17  22.0   ESE   42.4   48.6   42.3   40.6  29.471  0.00  0.00    35     0.50     42     0.0  0.00   0.0   0.113   0.000   68.6    44   45.8   66.6   8.35  .0732    0.000   211    5    100.0   10 
 1/16/19  3:40p   48.8   48.8   48.7    81   43.2  13.0   ESE   2.17  23.0    SE   42.5   48.7   42.4   40.4  29.466  0.00  0.00    17     0.24     28     0.0  0.00   0.0   0.113   0.000   68.6    44   45.8   66.6   8.35  .0732    0.000   212    5    100.0   10 
 1/16/19  3:50p   48.6   48.8   48.6    82   43.4  13.0   ESE   2.17  23.0     E   42.3   48.6   42.3   40.2  29.458  0.01  0.00    10     0.14     11     0.0  0.00   0.0   0.114   0.000   68.6    44   45.8   66.6   8.35  .0732    0.000   213    5    100.0   10 
 1/16/19  4:00p   48.6   48.6   48.5    82   43.4  13.0   ESE   2.17  25.0     E   42.3   48.6   42.3   40.2  29.450  0.01  0.07    12     0.17     12     0.0  0.00   0.0   0.114   0.000   68.6    44   45.8   66.6   8.35  .0732    0.002   210    5    100.0   10 
 1/16/19  4:10p   48.6   48.6   48.6    83   43.7  14.0   ESE   2.33  26.0    SE   41.9   48.6   41.9   39.7  29.438  0.00  0.00     7     0.10      9     0.0  0.00   0.0   0.114   0.000   68.6    44   45.8   66.6   8.35  .0731    0.000   212    5    100.0   10 
 1/16/19  4:20p   48.6   48.6   48.6    83   43.7  14.0   ESE   2.33  22.0   ESE   41.9   48.6   41.9   39.8  29.425  0.00  0.00     9     0.13      9     0.0  0.00   0.0   0.114   0.000   68.5    44   45.7   66.5   8.35  .0731    0.000   209    5    100.0   10 
 1/16/19  4:30p   48.6   48.6   48.6    83   43.7  14.0   ESE   2.33  24.0   ESE   41.9   48.6   41.9   39.7  29.424  0.00  0.00     7     0.10      7     0.0  0.00   0.0   0.114   0.000   68.5    44   45.7   66.5   8.35  .0731    0.000   211    5    100.0   10 
 1/16/19  4:40p   48.8   48.8   48.6    83   43.9  15.0   ESE   2.50  25.0   SSE   41.9   48.8   41.9   39.8  29.421  0.00  0.00     6     0.09      7     0.0  0.00   0.0   0.113   0.000   68.4    44   45.6   66.4   8.35  .0731    0.000   212    5    100.0   10 
 1/16/19  4:50p   48.9   48.9   48.7    83   44.0  15.0   ESE   2.50  28.0   ESE   42.0   48.9   42.0   39.8  29.412  0.01  0.00     1     0.01      5     0.0  0.00   0.0   0.112   0.000   68.4    44   45.6   66.4   8.35  .0731    0.000   213    5    100.0   10 
 1/16/19  5:00p   49.0   49.1   48.9    83   44.1  14.0   ESE   2.33  24.0   ESE   42.4   49.0   42.4   40.2  29.403  0.00  0.00     0     0.00      0     0.0  0.00   0.0   0.111   0.000   68.3    44   45.5   66.4   8.35  .0731    0.002   212    5    100.0   10 
 1/16/19  5:10p   49.1   49.1   49.0    83   44.2  13.0   ESE   2.17  22.0   SSE   42.8   49.1   42.8   40.5  29.406  0.00  0.00     0     0.00      0     0.0  0.00   0.0   0.110   0.000   68.2    45   46.0   66.4   8.49  .0731    0.000   211    5    100.0   10 
 1/16/19  5:20p   49.2   49.2   49.1    83   44.3  14.0   ESE   2.33  22.0     E   42.6   49.2   42.6   40.4  29.401  0.00  0.00     0     0.00      0     0.0  0.00   0.0   0.110   0.000   68.2    45   46.0   66.4   8.49  .0731    0.000   210    5    100.0   10 
 1/16/19  5:30p   49.1   49.2   49.1    83   44.2  13.0   ESE   2.17  22.0   ESE   42.8   49.1   42.8   40.5  29.410  0.00  0.00     0     0.00      0     0.0  0.00   0.0   0.110   0.000   68.1    45   45.9   66.3   8.49  .0731    0.000   211    5    100.0   10 
 1/16/19  5:40p   49.1   49.1   49.0    84   44.5  13.0   ESE   2.17  24.0   SSE   42.8   49.2   42.9   40.6  29.410  0.02  0.09     0     0.00      0     0.0  0.00   0.0   0.110   0.000   68.1    45   45.9   66.3   8.49  .0731    0.000   213    5    100.0   10 
 1/16/19  5:50p   49.0   49.0   49.0    84   44.4  13.0   ESE   2.17  23.0   ESE   42.7   49.1   42.8   40.5  29.405  0.00  0.05     0     0.00      0     0.0  0.00   0.0   0.111   0.000   68.1    45   45.9   66.3   8.49  .0731    0.000   212    5    100.0   10 
 1/16/19  6:00p   49.0   49.0   48.9    85   44.7  14.0   ESE   2.33  25.0    SE   42.4   49.1   42.5   40.3  29.405  0.00  0.00     0     0.00      0     0.0  0.00   0.0   0.111   0.000   68.1    45   45.9   66.3   8.49  .0731    0.001   211    5    100.0   10 
 1/16/19  6:10p   49.0   49.0   49.0    85   44.7  13.0   ESE   2.17  22.0   SSE   42.7   49.1   42.8   40.5  29.394  0.00  0.00     0     0.00      0     0.0  0.00   0.0   0.111   0.000   68.2    45   46.0   66.4   8.49  .0731    0.000   212    5    100.0   10 
 1/16/19  6:20p   49.0   49.0   48.9    85   44.7  14.0   ESE   2.33  25.0     E   42.4   49.1   42.5   40.3  29.389  0.01  0.00     0     0.00      0     0.0  0.00   0.0   0.111   0.000   68.2    45   46.0   66.4   8.49  .0731    0.000   208    5    100.0   10 
 1/16/19  6:30p   49.0   49.0   49.0    85   44.7  13.0   ESE   2.17  24.0   ESE   42.7   49.1   42.8   40.5  29.382  0.00  0.00     0     0.00      0     0.0  0.00   0.0   0.111   0.000   68.3    45   46.1   66.5   8.48  .0730    0.000   210    5    100.0   10 
 1/16/19  6:40p   49.1   49.1   49.0    85   44.8  13.0   ESE   2.17  26.0   SSE   42.8   49.2   42.9   40.6  29.378  0.00  0.00     0     0.00      0     0.0  0.00   0.0   0.110   0.000   68.3    45   46.1   66.5   8.48  .0730    0.000   213    5    100.0   10 
 1/16/19  6:50p   49.2   49.2   49.1    85   44.9  11.0   ESE   1.83  19.0     E   43.8   49.3   43.9   41.4  29.397  0.00  0.00     0     0.00      0     0.0  0.00   0.0   0.110   0.000   68.3    45   46.1   66.5   8.48  .0731    0.000   213    5    100.0   10 
 1/16/19  7:00p   49.3   49.3   49.2    85   45.0  12.0   ESE   2.00  21.0   SSE   43.5   49.4   43.6   41.2  29.392  0.00  0.00     0     0.00      0     0.0  0.00   0.0   0.109   0.000   68.3    45   46.1   66.5   8.48  .0730    0.001   212    5    100.0   10 
 1/16/19  7:10p   49.3   49.3   49.3    84   44.7  11.0   ESE   1.83  20.0   ESE   44.0   49.4   44.1   41.6  29.391  0.00  0.00     0     0.00      0     0.0  0.00   0.0   0.109   0.000   68.3    45   46.1   66.5   8.48  .0730    0.000   213    5    100.0   10 
 1/16/19  7:20p   49.3   49.3   49.3    84   44.7  11.0   ESE   1.83  16.0    SE   44.0   49.4   44.1   41.6  29.374  0.00  0.00     0     0.00      0     0.0  0.00   0.0   0.109   0.000   68.3    45   46.1   66.5   8.48  .0730    0.000   213    5    100.0   10 
 1/16/19  7:30p   49.4   49.5   49.3    84   44.8  10.0   ESE   1.67  19.0   ESE   44.6   49.5   44.7   42.1  29.391  0.00  0.00     0     0.00      0     0.0  0.00   0.0   0.108   0.000   68.3    45   46.1   66.5   8.48  .0730    0.000   211    5    100.0   10 
 1/16/19  7:40p   49.5   49.6   49.4    84   44.9  10.0   ESE   1.67  18.0     E   44.7   49.6   44.8   42.2  29.401  0.00  0.00     0     0.00      0     0.0  0.00   0.0   0.108   0.000   68.2    45   46.0   66.4   8.49  .0731    0.000   214    5    100.0   10 
 1/16/19  7:50p   49.9   49.9   49.5    84   45.3   9.0   ESE   1.50  18.0     E   45.8   50.0   45.9   43.3  29.389  0.00  0.00     0     0.00      0     0.0  0.00   0.0   0.105   0.000   68.1    45   45.9   66.3   8.49  .0731    0.000   213    5    100.0   10 
 1/16/19  8:00p   50.5   50.6   49.9    83   45.5   9.0   ESE   1.50  17.0     E   46.5   50.5   46.5   43.9  29.390  0.00  0.00     0     0.00      0     0.0  0.00   0.0   0.101   0.000   68.0    45   45.9   66.2   8.49  .0731    0.001   213    5    100.0   10 
 1/16/19  8:10p   51.4   51.4   50.6    82   46.1   9.0    SE   1.50  16.0   SSE   47.5   51.3   47.4   44.8  29.392  0.00  0.00     0     0.00      0     0.0  0.00   0.0   0.094   0.000   68.0    45   45.9   66.2   8.49  .0731    0.000   211    5    100.0   10 
 1/16/19  8:20p   51.5   51.5   51.4    81   45.9   9.0   ESE   1.50  16.0    SE   47.7   51.4   47.6   45.0  29.387  0.00  0.00     0     0.00      0     0.0  0.00   0.0   0.094   0.000   68.1    45   45.9   66.3   8.49  .0731    0.000   213    5    100.0   10 
 1/16/19  8:30p   51.5   51.5   51.5    80   45.5   7.0   ESE   1.17  16.0     S   49.0   51.3   48.8   46.0  29.390  0.00  0.00     0     0.00      0     0.0  0.00   0.0   0.094   0.000   68.1    45   45.9   66.3   8.49  .0731    0.000   211    5    100.0   10 
 1/16/19  8:40p   51.9   51.9   51.5    80   45.9  11.0   ESE   1.83  21.0    SE   47.0   51.7   46.8   44.4  29.395  0.00  0.00     0     0.00      0     0.0  0.00   0.0   0.091   0.000   68.1    45   45.9   66.3   8.49  .0731    0.000   213    5    100.0   10 
 1/16/19  8:50p   52.1   52.1   51.9    80   46.1   7.0   ESE   1.17  24.0   SSE   49.7   51.9   49.5   46.7  29.394  0.00  0.00     0     0.00      0     0.0  0.00   0.0   0.090   0.000   68.1    45   45.9   66.3   8.49  .0731    0.000   212    5    100.0   10 
 1/16/19  9:00p   52.0   52.1   52.0    79   45.7   6.0   ESE   1.00  12.0   ESE   50.0   51.8   49.8   47.0  29.388  0.00  0.00     0     0.00      0     0.0  0.00   0.0   0.090   0.000   68.1    45   45.9   66.3   8.49  .0731    0.001   212    5    100.0   10 
 1/16/19  9:10p   52.2   52.3   52.0    79   45.9   8.0   ESE   1.33  18.0   ESE   49.1   51.9   48.8   46.1  29.395  0.00  0.00     0     0.00      0     0.0  0.00   0.0   0.089   0.000   68.1    45   45.9   66.3   8.49  .0731    0.000   210    5    100.0   10 
 1/16/19  9:20p   52.8   52.8   52.3    78   46.1   9.0   ESE   1.50  18.0    SE   49.2   52.4   48.8   46.2  29.393  0.00  0.00     0     0.00      0     0.0  0.00   0.0   0.085   0.000   68.1    45   45.9   66.3   8.49  .0731    0.000   212    5    100.0   10 
 1/16/19  9:30p   53.7   53.7   52.8    76   46.3   6.0   ESE   1.00  16.0     E   52.0   53.2   51.5   48.7  29.402  0.00  0.00     0     0.00      0     0.0  0.00   0.0   0.078   0.000   68.1    45   45.9   66.3   8.49  .0731    0.000   211    5    100.0   10 
 1/16/19  9:40p   54.9   54.9   53.7    72   46.0   7.0     S   1.17  17.0   ENE   53.1   54.2   52.4   49.6  29.403  0.00  0.00     0     0.00      0     0.0  0.00   0.0   0.070   0.000   68.0    45   45.9   66.2   8.49  .0731    0.000   213    5    100.0   10 
 1/16/19  9:50p   55.2   55.3   54.9    70   45.6   5.0     S   0.83  14.0     E   54.3   54.4   53.5   50.7  29.400  0.00  0.00     0     0.00      0     0.0  0.00   0.0   0.068   0.000   68.0    45   45.9   66.2   8.49  .0731    0.000   213    5    100.0   10 
 1/16/19 10:00p   55.3   55.3   55.1    69   45.3   6.0   SSW   1.00  14.0   SSW   54.0   54.5   53.2   50.4  29.407  0.00  0.00     0     0.00      0     0.0  0.00   0.0   0.067   0.000   68.0    45   45.9   66.2   8.49  .0731    0.002   212    5    100.0   10 
 1/16/19 10:10p   54.6   55.3   54.6    70   45.0   5.0     S   0.83  14.0    SE   53.6   53.8   52.8   50.0  29.404  0.00  0.00     0     0.00      0     0.0  0.00   0.0   0.072   0.000   68.0    45   45.9   66.2   8.49  .0731    0.000   213    5    100.0   10 
 1/16/19 10:20p   53.5   54.6   53.5    72   44.7   5.0    SE   0.83  12.0   ESE   52.3   52.9   51.7   48.8  29.405  0.00  0.00     0     0.00      0     0.0  0.00   0.0   0.080   0.000   67.9    45   45.8   66.1   8.49  .0731    0.000   211    5    100.0   10 
 1/16/19 10:30p   52.7   53.4   52.7    73   44.3   7.0   ESE   1.17  14.0   ESE   50.4   52.1   49.8   46.9  29.397  0.00  0.00     0     0.00      0     0.0  0.00   0.0   0.085   0.000   67.9    45   45.8   66.1   8.49  .0731    0.000   213    5    100.0   10 
 1/16/19 10:40p   52.3   52.7   52.3    73   43.9   9.0   ESE   1.50  18.0   ESE   48.6   51.8   48.1   45.5  29.392  0.00  0.00     0     0.00      0     0.0  0.00   0.0   0.088   0.000   67.9    45   45.8   66.1   8.49  .0731    0.000   214    5    100.0   10 
 1/16/19 10:50p   52.3   52.3   52.2    74   44.3   9.0   ESE   1.50  16.0     E   48.6   51.8   48.1   45.5  29.396  0.00  0.00     0     0.00      0     0.0  0.00   0.0   0.088   0.000   67.8    45   45.7   66.0   8.49  .0731    0.000   212    5    100.0   10 
 1/16/19 11:00p   52.2   52.2   52.1    74   44.2   8.0   ESE   1.33  14.0     E   49.1   51.7   48.6   45.8  29.399  0.00  0.00     0     0.00      0     0.0  0.00   0.0   0.089   0.000   67.8    45   45.7   66.0   8.49  .0731    0.002   212    5    100.0   10 
 1/16/19 11:10p   52.5   52.5   52.2    73   44.1   6.0   ESE   1.00  14.0   ESE   50.6   52.0   50.1   47.2  29.403  0.00  0.00     0     0.00      0     0.0  0.00   0.0   0.087   0.000   67.8    45   45.7   66.0   8.49  .0732    0.000   211    5    100.0   10 
 1/16/19 11:20p   52.9   52.9   52.4    72   44.1   6.0   ESE   1.00  14.0   SSE   51.1   52.3   50.5   47.6  29.401  0.00  0.00     0     0.00      0     0.0  0.00   0.0   0.084   0.000   67.7    45   45.6   65.9   8.50  .0732    0.000   211    5    100.0   10 
 1/16/19 11:30p   53.1   53.1   52.9    71   43.9   7.0   ESE   1.17  13.0   ESE   50.9   52.4   50.2   47.3  29.396  0.00  0.00     0     0.00      0     0.0  0.00   0.0   0.083   0.000   67.7    45   45.6   65.9   8.50  .0732    0.000   214    5    100.0   10 
 1/16/19 11:40p   53.0   53.1   53.0    71   43.8   7.0    SE   1.17  16.0     E   50.8   52.3   50.1   47.2  29.387  0.00  0.00     0     0.00      0     0.0  0.00   0.0   0.083   0.000   67.7    45   45.6   65.9   8.50  .0731    0.000   213    5    100.0   10 
 1/16/19 11:50p   53.2   53.2   53.0    70   43.7   7.0    SE   1.17  19.0   SSE   51.0   52.5   50.3   47.4  29.392  0.00  0.00     0     0.00      0     0.0  0.00   0.0   0.082   0.000   67.6    45   45.5   65.8   8.50  .0732    0.000   213    5    100.0   10 
 1/17/19 12:00a   53.5   53.5   53.2    69   43.6   6.0     S   1.00  18.0   SSE   51.8   52.8   51.1   48.2  29.387  0.00  0.00     0     0.00      0     0.0  0.00   0.0   0.080   0.000   67.6    45   45.5   65.8   8.50  .0732    0.002   211    5    100.0   10 
 1/17/19 12:10a   53.9   54.0   53.4    68   43.6   6.0     S   1.00  21.0   ESE   52.3   53.1   51.5   48.6  29.375  0.00  0.00     0     0.00      0     0.0  0.00   0.0   0.077   0.000   67.6    45   45.5   65.8   8.50  .0731    0.000   210    5    100.0   10 
 1/17/19 12:20a   54.7   54.7   53.9    66   43.6   6.0   SSW   1.00  14.0   SSE   53.2   53.7   52.2   49.3  29.373  0.00  0.00     0     0.00      0     0.0  0.00   0.0   0.072   0.000   67.5    45   45.4   65.6   8.50  .0731    0.000   211    5    100.0   10 
 1/17/19 12:30a   54.5   54.8   54.5    66   43.4   6.0     S   1.00  20.0     S   53.0   53.6   52.1   49.2  29.369  0.00  0.00     0     0.00      0     0.0  0.00   0.0   0.073   0.000   67.5    45   45.4   65.6   8.50  .0731    0.000   212    5    100.0   10 
 1/17/19 12:40a   53.9   54.5   53.9    68   43.6   7.0   ESE   1.17  18.0   ESE   51.9   53.1   51.1   48.2  29.361  0.00  0.00     0     0.00      0     0.0  0.00   0.0   0.077   0.000   67.5    45   45.4   65.6   8.50  .0731    0.000   210    5    100.0   10 
 1/17/19 12:50a   53.7   53.9   53.7    68   43.4   6.0   ESE   1.00  15.0     E   52.0   52.9   51.2   48.3  29.362  0.00  0.00     0     0.00      0     0.0  0.00   0.0   0.078   0.000   67.4    45   45.3   65.5   8.50  .0731    0.000   212    5    100.0   10 
 1/17/19  1:00a   54.0   54.0   53.7    67   43.3   6.0    SE   1.00  13.0    SE   52.4   53.1   51.5   48.6  29.362  0.00  0.00     0     0.00      0     0.0  0.00   0.0   0.076   0.000   67.3    45   45.2   65.4   8.50  .0731    0.002   214    5    100.0   10 
 1/17/19  1:10a   54.1   54.1   54.0    67   43.4   5.0     S   0.83  20.0    SE   53.0   53.2   52.1   49.2  29.361  0.00  0.00     0     0.00      0     0.0  0.00   0.0   0.076   0.000   67.3    45   45.2   65.4   8.50  .0731    0.000   212    5    100.0   10 
 1/17/19  1:20a   54.1   54.1   54.0    66   43.0   5.0   SSW   0.83  13.0   ESE   53.0   53.2   52.1   49.1  29.358  0.00  0.00     0     0.00      0     0.0  0.00   0.0   0.076   0.000   67.3    45   45.2   65.4   8.50  .0731    0.000   212    5    100.0   10 
 1/17/19  1:30a   54.7   54.7   54.1    64   42.8   5.0   SSE   0.83  14.0   ESE   53.7   53.6   52.6   49.6  29.356  0.00  0.00     0     0.00      0     0.0  0.00   0.0   0.072   0.000   67.2    45   45.1   65.3   8.51  .0731    0.000   212    5    100.0   10 
 1/17/19  1:40a   55.1   55.1   54.7    62   42.3   6.0     S   1.00  22.0   ESE   53.7   53.9   52.5   49.5  29.351  0.00  0.00     0     0.00      0     0.0  0.00   0.0   0.069   0.000   67.2    45   45.1   65.3   8.51  .0731    0.000   211    5    100.0   10 
 1/17/19  1:50a   55.2   55.3   55.1    61   42.0   5.0     S   0.83  20.0   SSE   54.3   54.0   53.1   50.1  29.356  0.00  0.00     0     0.00      0     0.0  0.00   0.0   0.068   0.000   67.2    45   45.1   65.3   8.51  .0731    0.000   212    5    100.0   10 
 1/17/19  2:00a   55.3   55.4   55.2    61   42.1   6.0     S   1.00  15.0     S   54.0   54.1   52.8   49.8  29.355  0.00  0.00     0     0.00      0     0.0  0.00   0.0   0.067   0.000   67.1    45   45.0   65.2   8.51  .0732    0.002   214    5    100.0   10 
 1/17/19  2:10a   55.3   55.4   55.3    60   41.6   8.0   SSW   1.33  17.0   SSE   52.9   54.0   51.6   48.8  29.350  0.00  0.00     0     0.00      0     0.0  0.00   0.0   0.067   0.000   67.1    45   45.0   65.2   8.51  .0731    0.000   213    5    100.0   10 
 1/17/19  2:20a   55.6   55.7   55.3    59   41.5   7.0     S   1.17  22.0   SSE   53.9   54.2   52.5   49.5  29.348  0.00  0.00     0     0.00      0     0.0  0.00   0.0   0.065   0.000   67.0    45   44.9   65.1   8.51  .0732    0.000   213    5    100.0   10 
 1/17/19  2:30a   55.8   55.8   55.6    57   40.8   8.0     S   1.33  18.0     S   53.5   54.3   52.0   49.2  29.349  0.00  0.00     0     0.00      0     0.0  0.00   0.0   0.064   0.000   67.0    45   44.9   65.1   8.51  .0732    0.000   214    5    100.0   10 
 1/17/19  2:40a   56.0   56.0   55.8    57   41.0   9.0     S   1.50  17.0   SSW   53.0   54.5   51.5   48.8  29.349  0.00  0.00     0     0.00      0     0.0  0.00   0.0   0.063   0.000   67.0    45   44.9   65.1   8.51  .0732    0.000   212    5    100.0   10 
 1/17/19  2:50a   55.6   55.9   55.5    58   41.0   7.0     S   1.17  15.0   SSW   53.9   54.2   52.5   49.5  29.349  0.00  0.00     0     0.00      0     0.0  0.00   0.0   0.065   0.000   67.0    45   44.9   65.1   8.51  .0732    0.000   211    5    100.0   10 
 1/17/19  3:00a   55.7   55.8   55.6    57   40.7   7.0     S   1.17  22.0     S   54.0   54.2   52.5   49.5  29.348  0.00  0.00     0     0.00      0     0.0  0.00   0.0   0.065   0.000   66.9    45   44.9   65.0   8.51  .0732    0.003   213    5    100.0   10 
 1/17/19  3:10a   55.9   56.1   55.7    57   40.9   9.0     S   1.50  26.0     S   52.9   54.4   51.4   48.7  29.352  0.00  0.00     0     0.00      0     0.0  0.00   0.0   0.063   0.000   66.9    45   44.9   65.0   8.51  .0732    0.000   211    5    100.0   10 
 1/17/19  3:20a   55.8   55.9   55.8    57   40.8   8.0   SSW   1.33  22.0     S   53.5   54.3   52.0   49.2  29.354  0.00  0.00     0     0.00      0     0.0  0.00   0.0   0.064   0.000   66.8    45   44.8   64.9   8.51  .0732    0.000   211    5    100.0   10 
 1/17/19  3:30a   55.8   55.9   55.8    58   41.2   8.0     S   1.33  25.0   SSW   53.5   54.4   52.1   49.3  29.349  0.00  0.00     0     0.00      0     0.0  0.00   0.0   0.064   0.000   66.8    45   44.8   64.9   8.51  .0732    0.000   214    5    100.0   10 
 1/17/19  3:40a   55.6   55.9   55.6    58   41.0   9.0   SSW   1.50  27.0   SSW   52.5   54.2   51.1   48.4  29.352  0.00  0.00     0     0.00      0     0.0  0.00   0.0   0.065   0.000   66.8    45   44.8   64.9   8.51  .0732    0.000   213    5    100.0   10 
 1/17/19  3:50a   55.0   55.6   55.0    61   41.8   7.0     S   1.17  18.0    NE   53.2   53.8   52.0   49.0  29.367  0.00  0.00     0     0.00      0     0.0  0.00   0.0   0.069   0.000   66.7    45   44.7   64.7   8.52  .0733    0.000   211    5    100.0   10 
 1/17/19  4:00a   54.4   55.0   54.4    63   42.1   7.0     S   1.17  17.0     S   52.5   53.3   51.4   48.4  29.366  0.00  0.00     0     0.00      0     0.0  0.00   0.0   0.074   0.000   66.7    45   44.7   64.7   8.52  .0732    0.003   212    5    100.0   10 
 1/17/19  4:10a   53.8   54.4   53.7    66   42.7   6.0     S   1.00  24.0   SSW   52.2   52.9   51.3   48.3  29.368  0.00  0.00     0     0.00      0     0.0  0.00   0.0   0.078   0.000   66.7    45   44.7   64.7   8.52  .0733    0.000   213    5    100.0   10 
 1/17/19  4:20a   52.9   53.9   52.9    69   43.0   9.0   SSW   1.50  20.0   SSW   49.3   52.2   48.6   46.0  29.353  0.02  0.12     0     0.00      0     0.0  0.00   0.0   0.084   0.000   66.6    45   44.6   64.6   8.52  .0732    0.000   214    5    100.0   10 
 1/17/19  4:30a   52.2   52.9   52.2    72   43.4   8.0   SSW   1.33  17.0   SSE   49.1   51.7   48.6   45.8  29.374  0.02  0.15     0     0.00      0     0.0  0.00   0.0   0.089   0.000   66.6    45   44.6   64.6   8.52  .0733    0.000   211    5    100.0   10 
 1/17/19  4:40a   52.4   52.4   52.2    72   43.6  12.0   SSW   2.00  26.0     S   47.0   51.8   46.4   44.0  29.370  0.01  0.15     0     0.00      0     0.0  0.00   0.0   0.087   0.000   66.6    45   44.6   64.6   8.52  .0733    0.000   212    5    100.0   10 
 1/17/19  4:50a   51.7   52.3   51.7    74   43.7  12.0   SSW   2.00  30.0   SSW   46.2   51.3   45.8   43.4  29.387  0.01  0.11     0     0.00      0     0.0  0.00   0.0   0.092   0.000   66.5    45   44.5   64.5   8.52  .0733    0.000   213    5    100.0   10 
 1/17/19  5:00a   51.5   51.7   51.4    75   43.8  12.0   SSW   2.00  24.0    SW   46.0   51.2   45.7   43.3  29.388  0.01  0.06     0     0.00      0     0.0  0.00   0.0   0.094   0.000   66.5    45   44.5   64.5   8.52  .0733    0.002   211    5    100.0   10 
 1/17/19  5:10a   51.5   51.6   51.4    75   43.8  14.0   SSW   2.33  30.0     S   45.3   51.2   45.0   42.8  29.383  0.01  0.05     0     0.00      0     0.0  0.00   0.0   0.094   0.000   66.5    45   44.5   64.5   8.52  .0733    0.000   213    5    100.0   10 
 1/17/19  5:20a   51.9   52.0   51.4    76   44.6  15.0     S   2.50  37.0   SSW   45.4   51.5   45.0   42.8  29.390  0.00  0.04     0     0.00      0     0.0  0.00   0.0   0.091   0.000   66.5    45   44.5   64.5   8.52  .0733    0.000   212    5    100.0   10 
 1/17/19  5:30a   52.3   52.4   51.9    75   44.6  16.0     S   2.67  34.0     S   45.5   51.9   45.1   43.0  29.389  0.00  0.00     0     0.00      0     0.0  0.00   0.0   0.088   0.000   66.7    45   44.7   64.7   8.52  .0733    0.000   211    5    100.0   10 
 1/17/19  5:40a   52.4   52.5   52.1    76   45.1  18.0     S   3.00  38.0   ESE   45.0   52.0   44.6   42.7  29.388  0.00  0.00     0     0.00      0     0.0  0.00   0.0   0.087   0.000   66.8    45   44.8   64.9   8.51  .0733    0.000   211    5    100.0   10 
 1/17/19  5:50a   52.6   52.6   52.4    75   44.9  15.0   SSW   2.50  28.0    SW   46.2   52.1   45.7   43.5  29.383  0.00  0.00     0     0.00      0     0.0  0.00   0.0   0.086   0.000   66.9    45   44.9   65.0   8.51  .0733    0.000   213    5    100.0   10 
 1/17/19  6:00a   52.9   52.9   52.6    75   45.2  16.0   SSW   2.67  30.0    SW   46.2   52.4   45.7   43.7  29.383  0.00  0.00     0     0.00      0     0.0  0.00   0.0   0.084   0.000   67.0    45   44.9   65.1   8.51  .0732    0.003   213    5    100.0   10 
 1/17/19  6:10a   53.0   53.2   52.9    73   44.6  17.0   SSW   2.83  40.0   SSE   46.0   52.4   45.4   43.4  29.391  0.00  0.00     0     0.00      0     0.0  0.00   0.0   0.083   0.000   67.1    45   45.0   65.2   8.51  .0732    0.000   212    5    100.0   10 
 1/17/19  6:20a   52.3   53.1   52.3    75   44.6  18.0   SSW   3.00  33.0     S   44.9   51.9   44.5   42.5  29.402  0.01  0.00     0     0.00      0     0.0  0.00   0.0   0.088   0.000   67.1    46   45.6   65.3   8.65  .0733    0.000   213    5    100.0   10 
 1/17/19  6:30a   51.9   52.3   51.8    78   45.3  18.0   SSW   3.00  42.0     S   44.5   51.6   44.2   42.3  29.405  0.01  0.07     0     0.00      0     0.0  0.00   0.0   0.091   0.000   67.3    46   45.8   65.5   8.65  .0732    0.000   211    5    100.0   10 
 1/17/19  6:40a   51.9   52.0   51.9    78   45.3  21.0   SSW   3.50  42.0     S   43.8   51.6   43.5   41.7  29.416  0.00  0.04     0     0.00      0     0.0  0.00   0.0   0.091   0.000   67.3    46   45.8   65.5   8.65  .0733    0.000   213    5    100.0   10 
 1/17/19  6:50a   51.3   51.9   51.3    79   45.0  18.0     S   3.00  40.0   SSE   43.8   51.1   43.6   41.7  29.415  0.01  0.04     0     0.00      0     0.0  0.00   0.0   0.095   0.000   67.3    46   45.8   65.5   8.65  .0733    0.000   210    5    100.0   10 
 1/17/19  7:00a   51.7   51.7   51.4    78   45.1  15.0   SSW   2.50  29.0     S   45.1   51.4   44.8   42.7  29.410  0.00  0.00     0     0.00      0     0.0  0.00   0.0   0.092   0.000   67.3    46   45.8   65.5   8.65  .0732    0.003   211    5    100.0   10 
 1/17/19  7:10a   51.9   51.9   51.7    77   44.9  15.0     S   2.50  30.0     S   45.4   51.6   45.1   42.9  29.418  0.01  0.00     0     0.00      0     0.0  0.00   0.0   0.091   0.000   67.3    46   45.8   65.5   8.65  .0733    0.000   212    5    100.0   10 
 1/17/19  7:20a   52.0   52.1   51.9    77   45.0  15.0   SSW   2.50  38.0   SSE   45.5   51.7   45.2   43.1  29.428  0.00  0.00     0     0.00      0     0.0  0.00   0.0   0.090   0.000   67.3    46   45.8   65.5   8.65  .0733    0.000   213    5    100.0   10 
 1/17/19  7:30a   51.8   52.0   51.7    77   44.8  17.0   SSW   2.83  31.0   SSE   44.7   51.5   44.4   42.4  29.431  0.00  0.00     0     0.00      0     0.0  0.00   0.0   0.092   0.000   67.4    46   45.9   65.6   8.65  .0733    0.000   212    5    100.0   10 
 1/17/19  7:40a   52.0   52.0   51.8    76   44.7  20.0   SSW   3.33  38.0     S   44.1   51.6   43.7   41.8  29.435  0.00  0.00     0     0.00      0     0.0  0.00   0.0   0.090   0.000   67.5    46   46.0   65.8   8.65  .0733    0.000   211    5    100.0   10 
 1/17/19  7:50a   52.0   52.1   51.9    76   44.7  19.0   SSW   3.17  36.0   SSW   44.3   51.6   43.9   42.0  29.438  0.00  0.00     0     0.00      0     0.0  0.00   0.0   0.090   0.000   67.6    46   46.1   65.9   8.65  .0733    0.000   213    5    100.0   10 
 1/17/19  8:00a   52.0   52.0   51.9    78   45.4  19.0     S   3.17  36.0     S   44.3   51.7   44.0   42.1  29.448  0.00  0.00     2     0.03      5     0.0  0.00   0.0   0.090   0.000   67.7    46   46.2   66.0   8.65  .0733    0.003   211    5    100.0   10 
 1/17/19  8:10a   51.9   52.1   51.9    78   45.3  17.0   SSW   2.83  44.0     S   44.8   51.6   44.5   42.6  29.446  0.00  0.00     7     0.10      9     0.0  0.00   0.0   0.091   0.000   67.7    46   46.2   66.0   8.65  .0733    0.000   210    5    100.0   10 
 1/17/19  8:20a   51.9   52.0   51.8    78   45.3  17.0   SSW   2.83  35.0   SSE   44.8   51.6   44.5   42.7  29.445  0.01  0.00    13     0.19     18     0.0  0.00   0.0   0.091   0.000   67.8    46   46.3   66.1   8.65  .0732    0.000   214    5    100.0   10 
 1/17/19  8:30a   51.6   52.0   51.6    79   45.3  17.0   SSW   2.83  29.0   SSW   44.4   51.4   44.2   42.4  29.451  0.00  0.00    13     0.19     18     0.0  0.00   0.0   0.093   0.000   67.8    46   46.3   66.1   8.65  .0733    0.000   213    5    100.0   10 
 1/17/19  8:40a   51.4   51.6   51.4    79   45.1  20.0   SSW   3.33  42.0    SW   43.4   51.2   43.2   41.5  29.456  0.01  0.00     7     0.10     12     0.0  0.00   0.0   0.094   0.000   67.8    46   46.3   66.1   8.65  .0733    0.000   210    5    100.0   10 
 1/17/19  8:50a   51.1   51.4   51.0    80   45.1  17.0   SSW   2.83  35.0     S   43.8   51.0   43.7   42.2  29.463  0.01  0.06    27     0.39     39     0.0  0.00   0.0   0.097   0.000   67.8    46   46.3   66.1   8.65  .0733    0.000   211    5    100.0   10 
 1/17/19  9:00a   51.0   51.1   51.0    81   45.4  16.0   SSW   2.67  30.0   SSW   44.0   50.9   43.9   42.7  29.466  0.00  0.04    56     0.80     69     0.0  0.00   0.0   0.097   0.000   67.8    46   46.3   66.1   8.65  .0733    0.003   210    5    100.0   10 
 1/17/19  9:10a   51.2   51.4   51.1    81   45.6  20.0     S   3.33  40.0     S   43.2   51.1   43.1   43.0  29.478  0.01  0.04    42     0.60     49     0.0  0.00   0.0   0.096   0.000   67.9    46   46.3   66.2   8.65  .0733    0.000   212    5    100.0   10 
 1/17/19  9:20a   51.3   51.3   51.0    81   45.7  18.0   SSW   3.00  39.0   SSW   43.8   51.2   43.7   43.7  29.479  0.01  0.04    46     0.66     63     0.0  0.00   0.0   0.095   0.000   67.9    46   46.3   66.2   8.65  .0733    0.000   213    5    100.0   10 
Email: AdamSPAM@StormwatchersRetreat.com (To send me email remove the word 'SPAM' from my email address.)